sensor_id;sensor_type;location;lat;lon;timestamp;temperature;humidity
69464;DHT22;56665;41.106;16.688;2023-02-11T00:00:00;5.61;73.23
69464;DHT22;56665;41.106;16.688;2023-02-11T00:03:04;5.56;73.37
69464;DHT22;56665;41.106;16.688;2023-02-11T00:06:07;5.52;73.19
69464;DHT22;56665;41.106;16.688;2023-02-11T00:09:14;5.52;72.99
69464;DHT22;56665;41.106;16.688;2023-02-11T00:12:20;5.49;72.88
69464;DHT22;56665;41.106;16.688;2023-02-11T00:15:24;5.49;73.02
69464;DHT22;56665;41.106;16.688;2023-02-11T00:18:28;5.45;73.13
69464;DHT22;56665;41.106;16.688;2023-02-11T00:21:34;5.45;73.34
69464;DHT22;56665;41.106;16.688;2023-02-11T00:24:38;5.41;73.25
69464;DHT22;56665;41.106;16.688;2023-02-11T00:27:42;5.42;73.14
69464;DHT22;56665;41.106;16.688;2023-02-11T00:30:56;5.42;73.17
69464;DHT22;56665;41.106;16.688;2023-02-11T00:34:01;5.42;73.22
69464;DHT22;56665;41.106;16.688;2023-02-11T00:37:05;5.39;73.08
69464;DHT22;56665;41.106;16.688;2023-02-11T00:40:10;5.42;73.22
69464;DHT22;56665;41.106;16.688;2023-02-11T00:43:16;5.38;73.03
69464;DHT22;56665;41.106;16.688;2023-02-11T00:46:21;5.35;73.40
69464;DHT22;56665;41.106;16.688;2023-02-11T00:49:26;5.39;73.07
69464;DHT22;56665;41.106;16.688;2023-02-11T00:52:32;5.34;73.07
69464;DHT22;56665;41.106;16.688;2023-02-11T00:55:35;5.35;73.59
69464;DHT22;56665;41.106;16.688;2023-02-11T00:58:40;5.30;73.55
69464;DHT22;56665;41.106;16.688;2023-02-11T01:01:43;5.36;73.53
69464;DHT22;56665;41.106;16.688;2023-02-11T01:04:47;5.32;73.48
69464;DHT22;56665;41.106;16.688;2023-02-11T01:07:52;5.35;73.44
69464;DHT22;56665;41.106;16.688;2023-02-11T01:11:00;5.34;73.41
69464;DHT22;56665;41.106;16.688;2023-02-11T01:14:04;5.32;73.51
69464;DHT22;56665;41.106;16.688;2023-02-11T01:17:10;5.35;73.63
69464;DHT22;56665;41.106;16.688;2023-02-11T01:20:18;5.32;73.53
69464;DHT22;56665;41.106;16.688;2023-02-11T01:23:22;5.35;73.49
69464;DHT22;56665;41.106;16.688;2023-02-11T01:26:27;5.30;73.64
69464;DHT22;56665;41.106;16.688;2023-02-11T01:29:31;5.28;73.76
69464;DHT22;56665;41.106;16.688;2023-02-11T01:32:34;5.27;73.69
69464;DHT22;56665;41.106;16.688;2023-02-11T01:35:39;5.24;73.93
69464;DHT22;56665;41.106;16.688;2023-02-11T01:38:43;5.28;73.92
69464;DHT22;56665;41.106;16.688;2023-02-11T01:41:49;5.27;73.80
69464;DHT22;56665;41.106;16.688;2023-02-11T01:44:53;5.21;74.11
69464;DHT22;56665;41.106;16.688;2023-02-11T01:47:57;5.20;74.14
69464;DHT22;56665;41.106;16.688;2023-02-11T01:51:26;5.24;73.67
69464;DHT22;56665;41.106;16.688;2023-02-11T01:54:35;5.21;74.22
69464;DHT22;56665;41.106;16.688;2023-02-11T01:58:04;5.18;74.13
69464;DHT22;56665;41.106;16.688;2023-02-11T02:01:10;5.17;74.59
69464;DHT22;56665;41.106;16.688;2023-02-11T02:04:17;5.20;74.38
69464;DHT22;56665;41.106;16.688;2023-02-11T02:07:34;5.23;74.17
69464;DHT22;56665;41.106;16.688;2023-02-11T02:10:43;5.21;73.84
69464;DHT22;56665;41.106;16.688;2023-02-11T02:13:48;5.24;74.14
69464;DHT22;56665;41.106;16.688;2023-02-11T02:16:52;5.18;74.21
69464;DHT22;56665;41.106;16.688;2023-02-11T02:20:19;5.13;74.58
69464;DHT22;56665;41.106;16.688;2023-02-11T02:34:03;5.11;74.49
69464;DHT22;56665;41.106;16.688;2023-02-11T02:37:26;5.07;73.93
69464;DHT22;56665;41.106;16.688;2023-02-11T02:40:56;5.11;74.35
69464;DHT22;56665;41.106;16.688;2023-02-11T02:44:01;5.10;74.30
69464;DHT22;56665;41.106;16.688;2023-02-11T02:47:04;5.08;74.24
69464;DHT22;56665;41.106;16.688;2023-02-11T02:50:10;5.05;73.87
69464;DHT22;56665;41.106;16.688;2023-02-11T03:07:11;5.04;74.44
69464;DHT22;56665;41.106;16.688;2023-02-11T03:10:40;5.10;75.54
69464;DHT22;56665;41.106;16.688;2023-02-11T03:13:47;5.08;74.66
69464;DHT22;56665;41.106;16.688;2023-02-11T03:16:54;5.08;73.85
69464;DHT22;56665;41.106;16.688;2023-02-11T03:19:59;5.10;73.86
69464;DHT22;56665;41.106;16.688;2023-02-11T03:23:08;5.11;73.99
69464;DHT22;56665;41.106;16.688;2023-02-11T03:26:29;5.10;72.90
69464;DHT22;56665;41.106;16.688;2023-02-11T03:33:12;5.05;72.72
69464;DHT22;56665;41.106;16.688;2023-02-11T03:36:23;5.04;72.66
69464;DHT22;56665;41.106;16.688;2023-02-11T03:39:35;5.05;72.00
69464;DHT22;56665;41.106;16.688;2023-02-11T03:42:45;5.04;71.57
69464;DHT22;56665;41.106;16.688;2023-02-11T03:45:50;5.03;71.08
69464;DHT22;56665;41.106;16.688;2023-02-11T03:49:00;4.97;70.93
69464;DHT22;56665;41.106;16.688;2023-02-11T03:52:06;4.99;71.11
69464;DHT22;56665;41.106;16.688;2023-02-11T03:55:18;4.99;70.88
69464;DHT22;56665;41.106;16.688;2023-02-11T03:58:23;4.99;70.43
69464;DHT22;56665;41.106;16.688;2023-02-11T04:01:28;4.96;70.46
69464;DHT22;56665;41.106;16.688;2023-02-11T04:04:33;4.97;70.37
69464;DHT22;56665;41.106;16.688;2023-02-11T04:07:36;5.01;70.66
69464;DHT22;56665;41.106;16.688;2023-02-11T04:10:40;5.05;70.12
69464;DHT22;56665;41.106;16.688;2023-02-11T04:13:44;5.14;71.04
69464;DHT22;56665;41.106;16.688;2023-02-11T04:16:48;5.28;71.07
69464;DHT22;56665;41.106;16.688;2023-02-11T04:19:52;5.41;70.37
69464;DHT22;56665;41.106;16.688;2023-02-11T04:22:57;5.49;69.89
69464;DHT22;56665;41.106;16.688;2023-02-11T04:26:01;5.59;69.74
69464;DHT22;56665;41.106;16.688;2023-02-11T04:29:06;5.69;69.70
69464;DHT22;56665;41.106;16.688;2023-02-11T04:32:10;5.71;68.50
69464;DHT22;56665;41.106;16.688;2023-02-11T04:35:14;5.72;68.53
69464;DHT22;56665;41.106;16.688;2023-02-11T04:38:19;5.79;67.29
69464;DHT22;56665;41.106;16.688;2023-02-11T04:41:29;5.83;67.41
69464;DHT22;56665;41.106;16.688;2023-02-11T04:44:32;5.79;67.65
69464;DHT22;56665;41.106;16.688;2023-02-11T04:47:36;5.81;67.86
69464;DHT22;56665;41.106;16.688;2023-02-11T04:50:40;5.79;68.80
69464;DHT22;56665;41.106;16.688;2023-02-11T04:53:44;5.81;68.63
69464;DHT22;56665;41.106;16.688;2023-02-11T04:56:47;5.79;67.91
69464;DHT22;56665;41.106;16.688;2023-02-11T04:59:52;5.78;67.69
69464;DHT22;56665;41.106;16.688;2023-02-11T05:02:55;5.72;67.67
69464;DHT22;56665;41.106;16.688;2023-02-11T05:05:59;5.66;67.53
69464;DHT22;56665;41.106;16.688;2023-02-11T05:09:05;5.58;67.38
69464;DHT22;56665;41.106;16.688;2023-02-11T05:12:09;5.49;68.23
69464;DHT22;56665;41.106;16.688;2023-02-11T05:15:13;5.46;68.72
69464;DHT22;56665;41.106;16.688;2023-02-11T05:18:19;5.42;68.37
69464;DHT22;56665;41.106;16.688;2023-02-11T05:21:24;5.38;68.72
69464;DHT22;56665;41.106;16.688;2023-02-11T05:24:27;5.34;68.46
69464;DHT22;56665;41.106;16.688;2023-02-11T05:27:31;5.32;68.63
69464;DHT22;56665;41.106;16.688;2023-02-11T05:30:36;5.31;68.67
69464;DHT22;56665;41.106;16.688;2023-02-11T05:33:43;5.28;69.01
69464;DHT22;56665;41.106;16.688;2023-02-11T05:36:47;5.21;69.11
69464;DHT22;56665;41.106;16.688;2023-02-11T05:39:54;5.14;69.14
69464;DHT22;56665;41.106;16.688;2023-02-11T05:42:58;5.13;69.63
69464;DHT22;56665;41.106;16.688;2023-02-11T05:46:03;5.11;69.79
69464;DHT22;56665;41.106;16.688;2023-02-11T05:49:08;5.14;69.67
69464;DHT22;56665;41.106;16.688;2023-02-11T05:52:11;5.13;69.30
69464;DHT22;56665;41.106;16.688;2023-02-11T05:55:15;5.13;69.04
69464;DHT22;56665;41.106;16.688;2023-02-11T05:58:21;5.13;69.07
69464;DHT22;56665;41.106;16.688;2023-02-11T06:01:27;5.13;68.89
69464;DHT22;56665;41.106;16.688;2023-02-11T06:04:31;5.18;69.04
69464;DHT22;56665;41.106;16.688;2023-02-11T06:07:35;5.17;69.03
69464;DHT22;56665;41.106;16.688;2023-02-11T06:10:38;5.20;69.21
69464;DHT22;56665;41.106;16.688;2023-02-11T06:13:44;5.30;70.07
69464;DHT22;56665;41.106;16.688;2023-02-11T06:16:48;5.42;70.40
69464;DHT22;56665;41.106;16.688;2023-02-11T06:19:52;5.55;69.81
69464;DHT22;56665;41.106;16.688;2023-02-11T06:22:56;5.65;70.08
69464;DHT22;56665;41.106;16.688;2023-02-11T06:26:01;5.75;68.43
69464;DHT22;56665;41.106;16.688;2023-02-11T06:29:07;5.78;67.63
69464;DHT22;56665;41.106;16.688;2023-02-11T06:32:11;5.81;67.53
69464;DHT22;56665;41.106;16.688;2023-02-11T06:35:15;5.87;67.43
69464;DHT22;56665;41.106;16.688;2023-02-11T06:38:21;5.96;67.34
69464;DHT22;56665;41.106;16.688;2023-02-11T06:41:25;6.09;67.24
69464;DHT22;56665;41.106;16.688;2023-02-11T06:44:31;6.26;67.43
69464;DHT22;56665;41.106;16.688;2023-02-11T06:47:36;6.48;67.58
69464;DHT22;56665;41.106;16.688;2023-02-11T06:50:41;6.67;66.51
69464;DHT22;56665;41.106;16.688;2023-02-11T06:53:46;6.74;65.37
69464;DHT22;56665;41.106;16.688;2023-02-11T06:56:50;6.91;65.25
69464;DHT22;56665;41.106;16.688;2023-02-11T06:59:54;7.16;64.50
69464;DHT22;56665;41.106;16.688;2023-02-11T07:02:57;7.37;64.14
69464;DHT22;56665;41.106;16.688;2023-02-11T07:06:06;7.62;63.94
69464;DHT22;56665;41.106;16.688;2023-02-11T07:09:13;7.85;64.46
69464;DHT22;56665;41.106;16.688;2023-02-11T07:12:17;8.10;64.48
69464;DHT22;56665;41.106;16.688;2023-02-11T07:15:22;8.34;63.96
69464;DHT22;56665;41.106;16.688;2023-02-11T07:18:25;8.58;62.55
69464;DHT22;56665;41.106;16.688;2023-02-11T07:21:29;8.77;61.63
69464;DHT22;56665;41.106;16.688;2023-02-11T07:24:33;8.95;60.72
69464;DHT22;56665;41.106;16.688;2023-02-11T07:27:37;9.12;61.08
69464;DHT22;56665;41.106;16.688;2023-02-11T07:30:42;9.26;60.85
69464;DHT22;56665;41.106;16.688;2023-02-11T07:33:46;9.56;61.27
69464;DHT22;56665;41.106;16.688;2023-02-11T07:36:49;9.87;59.49
69464;DHT22;56665;41.106;16.688;2023-02-11T07:39:53;10.04;59.17
69464;DHT22;56665;41.106;16.688;2023-02-11T07:42:57;10.24;58.68
69464;DHT22;56665;41.106;16.688;2023-02-11T07:46:05;10.42;57.59
69464;DHT22;56665;41.106;16.688;2023-02-11T07:49:10;10.60;56.99
69464;DHT22;56665;41.106;16.688;2023-02-11T07:52:14;10.84;57.08
69464;DHT22;56665;41.106;16.688;2023-02-11T07:55:19;11.22;55.56
69464;DHT22;56665;41.106;16.688;2023-02-11T07:58:24;11.12;55.26
69464;DHT22;56665;41.106;16.688;2023-02-11T08:01:28;10.97;55.63
69464;DHT22;56665;41.106;16.688;2023-02-11T08:04:32;11.06;55.84
69464;DHT22;56665;41.106;16.688;2023-02-11T08:07:37;11.15;55.70
69464;DHT22;56665;41.106;16.688;2023-02-11T08:10:40;10.91;55.94
69464;DHT22;56665;41.106;16.688;2023-02-11T08:13:45;11.29;55.61
69464;DHT22;56665;41.106;16.688;2023-02-11T08:16:49;11.32;55.38
69464;DHT22;56665;41.106;16.688;2023-02-11T08:19:53;11.38;55.58
69464;DHT22;56665;41.106;16.688;2023-02-11T08:22:58;11.22;55.72
69464;DHT22;56665;41.106;16.688;2023-02-11T08:26:04;10.90;56.33
69464;DHT22;56665;41.106;16.688;2023-02-11T08:29:11;11.19;56.42
69464;DHT22;56665;41.106;16.688;2023-02-11T08:32:16;11.54;55.88
69464;DHT22;56665;41.106;16.688;2023-02-11T08:35:20;12.16;54.47
69464;DHT22;56665;41.106;16.688;2023-02-11T08:38:25;12.12;55.26
69464;DHT22;56665;41.106;16.688;2023-02-11T08:41:30;12.34;53.63
69464;DHT22;56665;41.106;16.688;2023-02-11T08:44:38;12.54;53.56
69464;DHT22;56665;41.106;16.688;2023-02-11T08:47:42;12.69;53.07
69464;DHT22;56665;41.106;16.688;2023-02-11T08:50:46;12.72;52.66
69464;DHT22;56665;41.106;16.688;2023-02-11T08:53:50;13.17;52.04
69464;DHT22;56665;41.106;16.688;2023-02-11T08:56:56;13.24;51.59
69464;DHT22;56665;41.106;16.688;2023-02-11T08:59:59;13.10;51.94
69464;DHT22;56665;41.106;16.688;2023-02-11T09:03:04;13.31;51.31
69464;DHT22;56665;41.106;16.688;2023-02-11T09:06:09;13.37;51.35
69464;DHT22;56665;41.106;16.688;2023-02-11T09:09:15;13.47;51.58
69464;DHT22;56665;41.106;16.688;2023-02-11T09:12:21;13.47;51.35
69464;DHT22;56665;41.106;16.688;2023-02-11T09:15:24;13.19;51.64
69464;DHT22;56665;41.106;16.688;2023-02-11T09:18:30;13.33;55.96
69464;DHT22;56665;41.106;16.688;2023-02-11T09:21:34;13.41;52.34
69464;DHT22;56665;41.106;16.688;2023-02-11T09:24:37;13.26;52.34
69464;DHT22;56665;41.106;16.688;2023-02-11T09:27:47;12.96;52.68
69464;DHT22;56665;41.106;16.688;2023-02-11T09:30:51;13.03;52.86
69464;DHT22;56665;41.106;16.688;2023-02-11T09:34:01;14.06;51.10
69464;DHT22;56665;41.106;16.688;2023-02-11T09:37:07;15.23;48.54
69464;DHT22;56665;41.106;16.688;2023-02-11T09:40:15;15.26;47.46
69464;DHT22;56665;41.106;16.688;2023-02-11T09:43:24;14.84;48.50
69464;DHT22;56665;41.106;16.688;2023-02-11T09:46:36;15.63;47.44
69464;DHT22;56665;41.106;16.688;2023-02-11T09:49:49;15.39;46.96
69464;DHT22;56665;41.106;16.688;2023-02-11T09:52:58;16.17;46.50
69464;DHT22;56665;41.106;16.688;2023-02-11T09:56:11;16.11;46.35
69464;DHT22;56665;41.106;16.688;2023-02-11T09:59:19;15.80;46.89
69464;DHT22;56665;41.106;16.688;2023-02-11T10:12:49;15.86;47.30
69464;DHT22;56665;41.106;16.688;2023-02-11T10:25:39;16.10;46.77
69464;DHT22;56665;41.106;16.688;2023-02-11T10:28:51;15.90;46.67
69464;DHT22;56665;41.106;16.688;2023-02-11T10:31:57;15.93;47.21
69464;DHT22;56665;41.106;16.688;2023-02-11T10:35:09;16.06;47.72
69464;DHT22;56665;41.106;16.688;2023-02-11T10:38:15;16.28;47.71
69464;DHT22;56665;41.106;16.688;2023-02-11T10:41:25;16.15;47.10
69464;DHT22;56665;41.106;16.688;2023-02-11T10:44:34;16.08;46.20
69464;DHT22;56665;41.106;16.688;2023-02-11T10:47:39;16.17;46.56
69464;DHT22;56665;41.106;16.688;2023-02-11T10:50:44;15.96;47.26
69464;DHT22;56665;41.106;16.688;2023-02-11T10:57:17;16.14;47.40
69464;DHT22;56665;41.106;16.688;2023-02-11T11:00:29;15.94;47.06
69464;DHT22;56665;41.106;16.688;2023-02-11T11:03:38;15.87;46.85
69464;DHT22;56665;41.106;16.688;2023-02-11T11:06:43;16.03;48.61
69464;DHT22;56665;41.106;16.688;2023-02-11T11:12:57;15.70;48.43
69464;DHT22;56665;41.106;16.688;2023-02-11T11:19:29;15.42;50.79
69464;DHT22;56665;41.106;16.688;2023-02-11T11:22:33;15.18;50.45
69464;DHT22;56665;41.106;16.688;2023-02-11T11:25:42;14.80;51.32
69464;DHT22;56665;41.106;16.688;2023-02-11T11:28:51;14.98;52.03
69464;DHT22;56665;41.106;16.688;2023-02-11T11:31:57;15.22;51.95
69464;DHT22;56665;41.106;16.688;2023-02-11T11:35:20;15.46;52.60
69464;DHT22;56665;41.106;16.688;2023-02-11T11:38:27;15.74;51.46
69464;DHT22;56665;41.106;16.688;2023-02-11T11:41:34;15.76;51.51
69464;DHT22;56665;41.106;16.688;2023-02-11T11:44:38;15.59;50.24
69464;DHT22;56665;41.106;16.688;2023-02-11T11:47:47;15.59;51.31
69464;DHT22;56665;41.106;16.688;2023-02-11T11:50:57;15.56;51.24
69464;DHT22;56665;41.106;16.688;2023-02-11T11:54:03;15.59;50.89
69464;DHT22;56665;41.106;16.688;2023-02-11T11:57:16;15.62;50.27
69464;DHT22;56665;41.106;16.688;2023-02-11T12:00:35;15.18;50.10
69464;DHT22;56665;41.106;16.688;2023-02-11T12:07:29;15.14;49.90
69464;DHT22;56665;41.106;16.688;2023-02-11T12:10:51;15.34;49.15
69464;DHT22;56665;41.106;16.688;2023-02-11T12:14:09;15.02;49.42
69464;DHT22;56665;41.106;16.688;2023-02-11T12:17:45;15.15;50.17
69464;DHT22;56665;41.106;16.688;2023-02-11T12:27:34;15.69;49.64
69464;DHT22;56665;41.106;16.688;2023-02-11T12:34:20;14.80;50.07
69464;DHT22;56665;41.106;16.688;2023-02-11T12:55:24;14.84;51.24
69464;DHT22;56665;41.106;16.688;2023-02-11T12:58:30;14.81;51.73
69464;DHT22;56665;41.106;16.688;2023-02-11T13:01:42;14.74;51.97
69464;DHT22;56665;41.106;16.688;2023-02-11T13:04:53;14.46;51.98
69464;DHT22;56665;41.106;16.688;2023-02-11T13:11:39;14.23;52.99
69464;DHT22;56665;41.106;16.688;2023-02-11T13:14:43;14.46;52.38
69464;DHT22;56665;41.106;16.688;2023-02-11T13:17:50;14.64;51.38
69464;DHT22;56665;41.106;16.688;2023-02-11T13:21:18;14.94;51.42
69464;DHT22;56665;41.106;16.688;2023-02-11T13:24:33;14.73;51.64
69464;DHT22;56665;41.106;16.688;2023-02-11T13:27:52;14.29;52.20
69464;DHT22;56665;41.106;16.688;2023-02-11T13:31:03;14.06;53.07
69464;DHT22;56665;41.106;16.688;2023-02-11T13:37:46;13.53;54.24
69464;DHT22;56665;41.106;16.688;2023-02-11T13:41:02;13.10;55.74
69464;DHT22;56665;41.106;16.688;2023-02-11T13:47:32;12.75;56.79
69464;DHT22;56665;41.106;16.688;2023-02-11T13:50:38;12.79;56.45
69464;DHT22;56665;41.106;16.688;2023-02-11T13:57:29;13.00;55.72
69464;DHT22;56665;41.106;16.688;2023-02-11T14:03:39;13.13;56.12
69464;DHT22;56665;41.106;16.688;2023-02-11T14:07:30;12.88;56.64
69464;DHT22;56665;41.106;16.688;2023-02-11T14:14:19;12.80;56.42
69464;DHT22;56665;41.106;16.688;2023-02-11T14:17:41;12.88;56.08
69464;DHT22;56665;41.106;16.688;2023-02-11T14:20:45;12.79;56.22
69464;DHT22;56665;41.106;16.688;2023-02-11T14:23:50;12.89;56.21
69464;DHT22;56665;41.106;16.688;2023-02-11T14:27:03;12.88;56.23
69464;DHT22;56665;41.106;16.688;2023-02-11T14:33:42;12.85;56.02
69464;DHT22;56665;41.106;16.688;2023-02-11T14:37:06;12.78;56.53
69464;DHT22;56665;41.106;16.688;2023-02-11T14:40:32;12.67;56.05
69464;DHT22;56665;41.106;16.688;2023-02-11T14:43:40;12.54;56.64
69464;DHT22;56665;41.106;16.688;2023-02-11T14:46:46;12.48;57.00
69464;DHT22;56665;41.106;16.688;2023-02-11T14:49:52;12.34;56.75
69464;DHT22;56665;41.106;16.688;2023-02-11T14:53:01;12.24;57.10
69464;DHT22;56665;41.106;16.688;2023-02-11T14:56:18;12.20;57.51
69464;DHT22;56665;41.106;16.688;2023-02-11T14:59:24;12.12;57.56
69464;DHT22;56665;41.106;16.688;2023-02-11T15:02:33;12.08;57.08
69464;DHT22;56665;41.106;16.688;2023-02-11T15:05:37;12.00;57.56
69464;DHT22;56665;41.106;16.688;2023-02-11T15:09:02;11.91;58.12
69464;DHT22;56665;41.106;16.688;2023-02-11T15:12:23;11.83;59.65
69464;DHT22;56665;41.106;16.688;2023-02-11T15:15:28;11.72;59.78
69464;DHT22;56665;41.106;16.688;2023-02-11T15:18:39;11.73;60.32
69464;DHT22;56665;41.106;16.688;2023-02-11T15:21:46;11.75;60.40
69464;DHT22;56665;41.106;16.688;2023-02-11T15:25:08;11.79;62.86
69464;DHT22;56665;41.106;16.688;2023-02-11T15:28:22;11.76;62.55
69464;DHT22;56665;41.106;16.688;2023-02-11T15:31:27;11.70;62.38
69464;DHT22;56665;41.106;16.688;2023-02-11T15:34:33;11.68;63.48
69464;DHT22;56665;41.106;16.688;2023-02-11T15:37:38;11.61;62.87
69464;DHT22;56665;41.106;16.688;2023-02-11T15:40:52;11.56;63.38
69464;DHT22;56665;41.106;16.688;2023-02-11T15:43:56;11.47;63.77
69464;DHT22;56665;41.106;16.688;2023-02-11T15:47:01;11.37;63.53
69464;DHT22;56665;41.106;16.688;2023-02-11T15:50:23;11.31;63.96
69464;DHT22;56665;41.106;16.688;2023-02-11T15:53:35;11.29;64.76
69464;DHT22;56665;41.106;16.688;2023-02-11T15:56:41;11.27;64.42
69464;DHT22;56665;41.106;16.688;2023-02-11T15:59:49;11.22;64.36
69464;DHT22;56665;41.106;16.688;2023-02-11T16:02:53;11.12;64.50
69464;DHT22;56665;41.106;16.688;2023-02-11T16:12:35;10.77;65.84
69464;DHT22;56665;41.106;16.688;2023-02-11T16:15:45;10.70;66.12
69464;DHT22;56665;41.106;16.688;2023-02-11T16:18:52;10.63;66.32
69464;DHT22;56665;41.106;16.688;2023-02-11T16:22:04;10.49;66.79
69464;DHT22;56665;41.106;16.688;2023-02-11T16:25:17;10.43;67.60
69464;DHT22;56665;41.106;16.688;2023-02-11T16:28:23;10.36;67.51
69464;DHT22;56665;41.106;16.688;2023-02-11T16:31:40;10.25;67.73
69464;DHT22;56665;41.106;16.688;2023-02-11T16:34:45;10.18;68.08
69464;DHT22;56665;41.106;16.688;2023-02-11T16:37:49;10.14;68.22
69464;DHT22;56665;41.106;16.688;2023-02-11T16:40:52;10.07;68.73
69464;DHT22;56665;41.106;16.688;2023-02-11T16:43:57;10.02;68.64
69464;DHT22;56665;41.106;16.688;2023-02-11T16:47:02;9.98;68.68
69464;DHT22;56665;41.106;16.688;2023-02-11T16:50:11;9.98;68.69
69464;DHT22;56665;41.106;16.688;2023-02-11T16:53:23;9.87;69.15
69464;DHT22;56665;41.106;16.688;2023-02-11T16:56:27;9.81;69.62
69464;DHT22;56665;41.106;16.688;2023-02-11T16:59:31;9.73;69.82
69464;DHT22;56665;41.106;16.688;2023-02-11T17:02:36;9.70;70.14
69464;DHT22;56665;41.106;16.688;2023-02-11T17:05:40;9.64;70.10
69464;DHT22;56665;41.106;16.688;2023-02-11T17:08:45;9.58;69.95
69464;DHT22;56665;41.106;16.688;2023-02-11T17:11:49;9.54;70.09
69464;DHT22;56665;41.106;16.688;2023-02-11T17:14:53;9.49;70.19
69464;DHT22;56665;41.106;16.688;2023-02-11T17:17:58;9.42;70.29
69464;DHT22;56665;41.106;16.688;2023-02-11T17:21:05;9.39;70.27
69464;DHT22;56665;41.106;16.688;2023-02-11T17:24:09;9.33;70.19
69464;DHT22;56665;41.106;16.688;2023-02-11T17:27:13;9.18;70.97
69464;DHT22;56665;41.106;16.688;2023-02-11T17:30:19;9.01;71.19
69464;DHT22;56665;41.106;16.688;2023-02-11T17:33:22;8.92;71.86
69464;DHT22;56665;41.106;16.688;2023-02-11T17:36:28;8.88;72.21
69464;DHT22;56665;41.106;16.688;2023-02-11T17:39:35;8.77;72.20
69464;DHT22;56665;41.106;16.688;2023-02-11T17:42:39;8.71;72.48
69464;DHT22;56665;41.106;16.688;2023-02-11T17:45:43;8.67;72.51
69464;DHT22;56665;41.106;16.688;2023-02-11T17:48:46;8.60;72.92
69464;DHT22;56665;41.106;16.688;2023-02-11T17:51:50;8.57;72.81
69464;DHT22;56665;41.106;16.688;2023-02-11T17:54:54;8.54;72.94
69464;DHT22;56665;41.106;16.688;2023-02-11T17:57:59;8.50;72.99
69464;DHT22;56665;41.106;16.688;2023-02-11T18:01:04;8.44;73.09
69464;DHT22;56665;41.106;16.688;2023-02-11T18:04:13;8.36;73.82
69464;DHT22;56665;41.106;16.688;2023-02-11T18:07:17;8.34;73.79
69464;DHT22;56665;41.106;16.688;2023-02-11T18:10:22;8.34;73.99
69464;DHT22;56665;41.106;16.688;2023-02-11T18:13:26;8.29;74.22
69464;DHT22;56665;41.106;16.688;2023-02-11T18:16:30;8.27;74.26
69464;DHT22;56665;41.106;16.688;2023-02-11T18:19:38;8.25;74.29
69464;DHT22;56665;41.106;16.688;2023-02-11T18:22:43;8.26;74.40
69464;DHT22;56665;41.106;16.688;2023-02-11T18:25:46;8.20;74.69
69464;DHT22;56665;41.106;16.688;2023-02-11T18:28:50;8.22;75.03
69464;DHT22;56665;41.106;16.688;2023-02-11T18:31:55;8.16;75.24
69464;DHT22;56665;41.106;16.688;2023-02-11T18:35:00;8.19;75.02
69464;DHT22;56665;41.106;16.688;2023-02-11T18:38:05;8.10;75.36
69464;DHT22;56665;41.106;16.688;2023-02-11T18:41:10;8.10;75.28
69464;DHT22;56665;41.106;16.688;2023-02-11T18:44:13;8.07;75.69
69464;DHT22;56665;41.106;16.688;2023-02-11T18:47:24;8.03;75.68
69464;DHT22;56665;41.106;16.688;2023-02-11T18:50:28;8.01;76.13
69464;DHT22;56665;41.106;16.688;2023-02-11T18:53:32;7.96;76.08
69464;DHT22;56665;41.106;16.688;2023-02-11T18:56:37;7.92;76.41
69464;DHT22;56665;41.106;16.688;2023-02-11T18:59:42;7.86;76.75
69464;DHT22;56665;41.106;16.688;2023-02-11T19:02:46;7.85;76.77
69464;DHT22;56665;41.106;16.688;2023-02-11T19:05:50;7.86;76.83
69464;DHT22;56665;41.106;16.688;2023-02-11T19:08:56;7.84;76.65
69464;DHT22;56665;41.106;16.688;2023-02-11T19:12:01;7.82;76.79
69464;DHT22;56665;41.106;16.688;2023-02-11T19:15:06;7.79;77.06
69464;DHT22;56665;41.106;16.688;2023-02-11T19:18:11;7.75;77.46
69464;DHT22;56665;41.106;16.688;2023-02-11T19:21:18;7.78;77.60
69464;DHT22;56665;41.106;16.688;2023-02-11T19:24:23;7.78;77.55
69464;DHT22;56665;41.106;16.688;2023-02-11T19:27:26;7.77;77.35
69464;DHT22;56665;41.106;16.688;2023-02-11T19:30:31;7.75;77.52
69464;DHT22;56665;41.106;16.688;2023-02-11T19:33:35;7.72;77.77
69464;DHT22;56665;41.106;16.688;2023-02-11T19:36:40;7.72;78.21
69464;DHT22;56665;41.106;16.688;2023-02-11T19:39:46;7.68;78.15
69464;DHT22;56665;41.106;16.688;2023-02-11T19:42:49;7.69;78.01
69464;DHT22;56665;41.106;16.688;2023-02-11T19:45:53;7.74;78.10
69464;DHT22;56665;41.106;16.688;2023-02-11T19:49:00;7.74;77.57
69464;DHT22;56665;41.106;16.688;2023-02-11T19:52:04;7.69;77.05
69464;DHT22;56665;41.106;16.688;2023-02-11T19:55:09;7.71;77.43
69464;DHT22;56665;41.106;16.688;2023-02-11T19:58:13;7.71;77.28
69464;DHT22;56665;41.106;16.688;2023-02-11T20:01:19;7.75;76.87
69464;DHT22;56665;41.106;16.688;2023-02-11T20:04:23;7.72;76.85
69464;DHT22;56665;41.106;16.688;2023-02-11T20:07:27;7.69;76.87
69464;DHT22;56665;41.106;16.688;2023-02-11T20:10:31;7.71;77.01
69464;DHT22;56665;41.106;16.688;2023-02-11T20:13:38;7.77;77.45
69464;DHT22;56665;41.106;16.688;2023-02-11T20:16:42;7.82;77.72
69464;DHT22;56665;41.106;16.688;2023-02-11T20:19:46;7.86;77.30
69464;DHT22;56665;41.106;16.688;2023-02-11T20:22:50;7.96;77.05
69464;DHT22;56665;41.106;16.688;2023-02-11T20:25:54;8.02;76.63
69464;DHT22;56665;41.106;16.688;2023-02-11T20:28:59;8.07;76.18
69464;DHT22;56665;41.106;16.688;2023-02-11T20:32:05;8.10;75.48
69464;DHT22;56665;41.106;16.688;2023-02-11T20:35:09;8.07;75.21
69464;DHT22;56665;41.106;16.688;2023-02-11T20:38:13;8.06;74.94
69464;DHT22;56665;41.106;16.688;2023-02-11T20:41:20;8.07;74.82
69464;DHT22;56665;41.106;16.688;2023-02-11T20:44:24;8.09;74.79
69464;DHT22;56665;41.106;16.688;2023-02-11T20:47:27;8.07;74.85
69464;DHT22;56665;41.106;16.688;2023-02-11T20:50:32;8.07;75.63
69464;DHT22;56665;41.106;16.688;2023-02-11T20:53:37;8.12;75.48
69464;DHT22;56665;41.106;16.688;2023-02-11T20:56:42;8.10;74.73
69464;DHT22;56665;41.106;16.688;2023-02-11T20:59:45;8.10;74.82
69464;DHT22;56665;41.106;16.688;2023-02-11T21:02:51;8.13;74.32
69464;DHT22;56665;41.106;16.688;2023-02-11T21:05:57;8.15;74.37
69464;DHT22;56665;41.106;16.688;2023-02-11T21:09:02;8.13;74.25
69464;DHT22;56665;41.106;16.688;2023-02-11T21:12:06;8.07;74.53
69464;DHT22;56665;41.106;16.688;2023-02-11T21:15:11;8.09;75.14
69464;DHT22;56665;41.106;16.688;2023-02-11T21:18:15;8.09;75.31
69464;DHT22;56665;41.106;16.688;2023-02-11T21:21:20;8.09;74.72
69464;DHT22;56665;41.106;16.688;2023-02-11T21:24:23;8.09;73.90
69464;DHT22;56665;41.106;16.688;2023-02-11T21:27:27;8.05;74.23
69464;DHT22;56665;41.106;16.688;2023-02-11T21:30:39;8.03;74.06
69464;DHT22;56665;41.106;16.688;2023-02-11T21:33:43;7.98;74.07